createdAt,value
2017-08-12T00:01:02.581Z,14.30
2017-08-12T00:03:30.097Z,14.30
2017-08-12T00:05:57.643Z,14.30
2017-08-12T00:08:25.169Z,14.30
2017-08-12T00:10:52.797Z,14.30
2017-08-12T00:13:20.426Z,14.30
2017-08-12T00:15:48.002Z,14.30
2017-08-12T00:18:15.524Z,14.30
2017-08-12T00:20:43.066Z,14.30
2017-08-12T00:23:10.595Z,14.30
2017-08-12T00:25:38.261Z,14.30
2017-08-12T00:28:06.572Z,14.30
2017-08-12T00:30:34.091Z,14.30
2017-08-12T00:33:02.379Z,14.30
2017-08-12T00:35:29.914Z,14.20
2017-08-12T00:37:57.430Z,14.30
2017-08-12T00:40:24.953Z,14.30
2017-08-12T00:42:52.502Z,14.30
2017-08-12T00:45:20.042Z,14.20
2017-08-12T00:47:47.562Z,14.20
2017-08-12T00:50:15.093Z,14.20
2017-08-12T00:52:42.622Z,14.20
2017-08-12T00:55:10.150Z,14.20
2017-08-12T00:57:37.693Z,14.20
2017-08-12T01:00:05.214Z,14.20
2017-08-12T01:02:33.502Z,14.10
2017-08-12T01:05:01.042Z,14.10
2017-08-12T01:07:29.333Z,14.00
2017-08-12T01:09:56.857Z,14.00
2017-08-12T01:12:24.389Z,14.00
2017-08-12T01:14:51.905Z,13.90
2017-08-12T01:17:20.189Z,13.80
2017-08-12T01:19:48.497Z,13.80
2017-08-12T01:22:16.012Z,13.80
2017-08-12T01:24:44.301Z,13.80
2017-08-12T01:27:11.848Z,13.80
2017-08-12T01:29:40.144Z,13.80
2017-08-12T01:32:07.674Z,13.80
2017-08-12T01:34:35.210Z,13.80
2017-08-12T01:37:02.726Z,13.80
2017-08-12T01:39:30.290Z,13.80
2017-08-12T01:41:57.878Z,13.80
2017-08-12T01:44:25.402Z,13.80
2017-08-12T01:46:52.925Z,13.70
2017-08-12T01:49:20.482Z,13.70
2017-08-12T01:51:48.005Z,13.70
2017-08-12T01:54:15.526Z,13.70
2017-08-12T01:56:43.070Z,13.70
2017-08-12T01:59:11.361Z,13.70
2017-08-12T02:01:39.654Z,13.60
2017-08-12T02:04:07.193Z,13.60
2017-08-12T02:06:34.721Z,13.60
2017-08-12T02:09:02.237Z,13.60
2017-08-12T02:11:29.779Z,13.50
2017-08-12T02:13:58.057Z,13.40
2017-08-12T02:16:25.577Z,13.40
2017-08-12T02:18:53.112Z,13.30
2017-08-12T02:21:20.658Z,13.20
2017-08-12T02:23:48.186Z,13.10
2017-08-12T02:26:16.489Z,12.90
2017-08-12T02:28:44.012Z,12.90
2017-08-12T02:31:12.302Z,12.70
2017-08-12T02:33:39.852Z,12.70
2017-08-12T02:36:08.142Z,12.60
2017-08-12T02:38:35.658Z,12.60
2017-08-12T02:41:03.196Z,12.60
2017-08-12T02:43:30.718Z,12.50
2017-08-12T02:45:58.271Z,12.50
2017-08-12T02:48:26.578Z,12.50
2017-08-12T02:50:54.106Z,12.50
2017-08-12T02:53:22.390Z,12.40
2017-08-12T02:55:49.935Z,12.40
2017-08-12T02:58:18.225Z,12.30
2017-08-12T03:00:46.522Z,12.20
2017-08-12T03:03:14.064Z,12.10
2017-08-12T03:05:41.581Z,12.10
2017-08-12T03:08:09.109Z,12.10
2017-08-12T03:10:36.649Z,12.00
2017-08-12T03:13:04.177Z,12.00
2017-08-12T03:15:31.697Z,11.90
2017-08-12T03:17:59.243Z,11.90
2017-08-12T03:20:26.760Z,11.90
2017-08-12T03:22:55.053Z,11.70
2017-08-12T03:25:22.593Z,11.70
2017-08-12T03:27:50.877Z,11.60
2017-08-12T03:30:19.166Z,11.60
2017-08-12T03:32:46.964Z,11.60
2017-08-12T03:35:14.490Z,11.50
2017-08-12T03:37:42.018Z,11.50
2017-08-12T03:40:09.563Z,11.50
2017-08-12T03:42:37.094Z,11.40
2017-08-12T03:45:04.623Z,11.40
2017-08-12T03:47:33.032Z,11.40
2017-08-12T03:50:00.562Z,11.40
2017-08-12T03:52:28.850Z,11.50
2017-08-12T03:54:56.421Z,11.40
2017-08-12T03:57:23.954Z,11.50
2017-08-12T03:59:52.254Z,11.70
2017-08-12T04:02:19.817Z,11.60
2017-08-12T04:04:47.346Z,11.70
2017-08-12T04:07:15.636Z,11.90
2017-08-12T04:09:43.541Z,11.90
2017-08-12T04:12:11.067Z,12.00
2017-08-12T04:14:38.597Z,12.10
2017-08-12T04:17:06.908Z,12.30
2017-08-12T04:19:34.441Z,12.20
2017-08-12T04:22:02.737Z,12.40
2017-08-12T04:24:30.288Z,12.30
2017-08-12T04:26:57.809Z,12.40
2017-08-12T04:29:25.437Z,12.50
2017-08-12T04:31:52.981Z,12.50
2017-08-12T04:34:20.515Z,12.50
2017-08-12T04:36:48.821Z,12.60
2017-08-12T04:39:16.360Z,12.60
2017-08-12T04:41:44.649Z,12.70
2017-08-12T04:44:12.168Z,12.60
2017-08-12T04:46:39.711Z,12.70
2017-08-12T04:49:07.242Z,12.80
2017-08-12T04:51:34.768Z,12.90
2017-08-12T04:54:03.208Z,13.10
2017-08-12T04:56:30.739Z,13.10
2017-08-12T04:58:58.274Z,13.20
2017-08-12T05:01:26.590Z,13.20
2017-08-12T05:03:54.114Z,13.20
2017-08-12T05:06:21.646Z,13.20
2017-08-12T05:08:49.190Z,13.20
2017-08-12T05:11:16.717Z,13.20
2017-08-12T05:13:44.246Z,13.30
2017-08-12T05:16:11.796Z,13.20
2017-08-12T05:18:40.385Z,13.20
2017-08-12T05:21:08.681Z,13.20
2017-08-12T05:23:36.233Z,13.20
2017-08-12T05:26:03.761Z,13.20
2017-08-12T05:28:31.293Z,13.20
2017-08-12T05:30:58.841Z,13.30
2017-08-12T05:33:26.358Z,13.50
2017-08-12T05:35:53.889Z,13.70
2017-08-12T05:38:21.431Z,13.80
2017-08-12T05:40:48.959Z,13.90
2017-08-12T05:43:16.488Z,14.00
2017-08-12T05:45:44.812Z,14.30
2017-08-12T05:48:12.338Z,14.20
2017-08-12T05:50:40.702Z,14.30
2017-08-12T05:53:09.019Z,14.50
2017-08-12T05:55:36.550Z,14.40
2017-08-12T05:58:04.090Z,14.60
2017-08-12T06:00:31.631Z,14.60
2017-08-12T06:02:59.162Z,14.70
2017-08-12T06:05:26.710Z,14.80
2017-08-12T06:07:54.264Z,14.70
2017-08-12T06:10:21.793Z,14.70
2017-08-12T06:12:50.085Z,14.70
2017-08-12T06:15:17.634Z,14.70
2017-08-12T06:17:45.926Z,14.60
2017-08-12T06:20:13.470Z,14.60
2017-08-12T06:22:41.781Z,14.70
2017-08-12T06:25:09.301Z,14.70
2017-08-12T06:27:37.585Z,14.80
2017-08-12T06:30:05.135Z,14.80
2017-08-12T06:32:32.660Z,14.90
2017-08-12T06:35:00.301Z,15.00
2017-08-12T06:37:27.849Z,15.10
2017-08-12T06:39:55.379Z,15.20
2017-08-12T06:42:23.672Z,15.40
2017-08-12T06:44:51.218Z,15.40
2017-08-12T06:47:18.750Z,15.40
2017-08-12T06:49:46.287Z,15.40
2017-08-12T06:52:13.834Z,15.40
2017-08-12T06:54:41.374Z,15.60
2017-08-12T06:57:08.900Z,15.70
2017-08-12T06:59:36.453Z,15.90
2017-08-12T07:02:03.976Z,16.20
2017-08-12T07:04:31.518Z,16.30
2017-08-12T07:06:59.067Z,16.60
2017-08-12T07:09:26.602Z,16.70
2017-08-12T07:11:54.127Z,17.00
2017-08-12T07:14:21.669Z,17.30
2017-08-12T07:16:49.201Z,17.40
2017-08-12T07:19:16.737Z,17.70
2017-08-12T07:21:45.052Z,17.90
2017-08-12T07:24:12.585Z,17.90
2017-08-12T07:26:40.887Z,18.00
2017-08-12T07:29:08.433Z,18.00
2017-08-12T07:31:35.989Z,18.10
2017-08-12T07:34:03.521Z,18.00
2017-08-12T07:36:31.065Z,18.10
2017-08-12T07:38:58.588Z,18.30
2017-08-12T07:41:26.107Z,18.40
2017-08-12T07:43:54.461Z,18.40
2017-08-12T07:46:21.983Z,18.40
2017-08-12T07:48:49.503Z,18.40
2017-08-12T07:51:17.046Z,18.40
2017-08-12T07:53:44.564Z,18.60
2017-08-12T07:56:12.088Z,18.60
2017-08-12T07:58:40.390Z,18.90
2017-08-12T08:01:07.908Z,18.90
2017-08-12T08:03:35.429Z,18.90
2017-08-12T08:06:02.963Z,18.80
2017-08-12T08:08:30.496Z,18.80
2017-08-12T08:10:58.792Z,18.70
2017-08-12T08:13:26.330Z,18.70
2017-08-12T08:15:54.714Z,19.00
2017-08-12T08:18:22.242Z,19.00
2017-08-12T08:20:49.792Z,19.30
2017-08-12T08:23:17.308Z,19.30
2017-08-12T08:25:44.832Z,19.50
2017-08-12T08:28:12.398Z,19.50
2017-08-12T08:30:40.699Z,19.60
2017-08-12T08:33:08.275Z,19.60
2017-08-12T08:35:35.817Z,19.80
2017-08-12T08:38:03.338Z,19.90
2017-08-12T08:40:30.870Z,19.80
2017-08-12T08:42:58.409Z,19.70
2017-08-12T08:45:25.931Z,19.90
2017-08-12T08:47:54.225Z,19.80
2017-08-12T08:50:21.765Z,19.80
2017-08-12T08:52:49.285Z,19.90
2017-08-12T08:55:16.910Z,20.20
2017-08-12T08:57:44.470Z,20.40
2017-08-12T09:00:11.995Z,20.60
2017-08-12T09:02:39.513Z,20.40
2017-08-12T09:05:07.054Z,20.40
2017-08-12T09:07:34.573Z,20.30
2017-08-12T09:10:02.094Z,20.30
2017-08-12T09:12:29.640Z,20.50
2017-08-12T09:14:57.168Z,20.40
2017-08-12T09:17:25.454Z,19.90
2017-08-12T09:19:53.006Z,19.90
2017-08-12T09:22:21.298Z,20.40
2017-08-12T09:24:48.822Z,20.30
2017-08-12T09:27:16.466Z,20.70
2017-08-12T09:29:43.992Z,20.80
2017-08-12T09:32:11.520Z,20.90
2017-08-12T09:34:39.058Z,20.90
2017-08-12T09:37:06.590Z,21.00
2017-08-12T09:39:34.120Z,21.30
2017-08-12T09:42:01.671Z,21.10
2017-08-12T09:44:29.199Z,21.30
2017-08-12T09:46:56.717Z,21.30
2017-08-12T09:49:24.274Z,20.70
2017-08-12T09:51:51.835Z,20.60
2017-08-12T09:54:19.363Z,20.70
2017-08-12T09:56:46.898Z,20.50
2017-08-12T09:59:15.190Z,20.30
2017-08-12T10:01:42.721Z,20.30
2017-08-12T10:04:10.282Z,20.10
2017-08-12T10:06:37.901Z,19.80
2017-08-12T10:09:05.426Z,19.60
2017-08-12T10:11:33.736Z,19.30
2017-08-12T10:14:01.251Z,19.20
2017-08-12T10:16:29.542Z,19.30
2017-08-12T10:18:57.850Z,19.30
2017-08-12T10:21:25.370Z,19.30
2017-08-12T10:23:52.906Z,19.20
2017-08-12T10:26:20.446Z,19.20
2017-08-12T10:28:47.965Z,19.10
2017-08-12T10:31:15.498Z,19.20
2017-08-12T10:33:43.033Z,19.10
2017-08-12T10:36:10.553Z,19.10
2017-08-12T10:38:38.077Z,19.10
2017-08-12T10:41:06.394Z,19.00
2017-08-12T10:43:33.974Z,19.00
2017-08-12T10:46:01.538Z,18.90
2017-08-12T10:48:29.240Z,18.90
2017-08-12T10:50:57.521Z,18.60
2017-08-12T10:53:25.097Z,18.50
2017-08-12T10:55:52.638Z,18.40
2017-08-12T10:58:20.919Z,18.30
2017-08-12T11:00:48.444Z,18.30
2017-08-12T11:03:16.055Z,18.60
2017-08-12T11:05:43.579Z,18.80
2017-08-12T11:08:11.102Z,19.10
2017-08-12T11:10:39.338Z,19.10
2017-08-12T11:13:07.622Z,20.10
2017-08-12T11:15:35.148Z,20.10
2017-08-12T11:18:02.690Z,20.60
2017-08-12T11:20:30.214Z,20.50
2017-08-12T11:22:57.748Z,20.60
2017-08-12T11:25:25.288Z,20.40
2017-08-12T11:27:52.816Z,20.10
2017-08-12T11:30:20.333Z,20.00
2017-08-12T11:32:47.878Z,19.80
2017-08-12T11:35:16.171Z,19.20
2017-08-12T11:37:43.696Z,19.20
2017-08-12T11:40:12.032Z,19.50
2017-08-12T11:42:39.557Z,19.50
2017-08-12T11:45:07.846Z,20.20
2017-08-12T11:47:35.427Z,20.20
2017-08-12T11:50:02.973Z,21.00
2017-08-12T11:52:30.505Z,23.50
2017-08-12T11:54:58.049Z,26.10
2017-08-12T11:57:25.577Z,26.90
2017-08-12T11:59:53.097Z,27.20
2017-08-12T12:02:20.645Z,27.30
2017-08-12T12:04:48.931Z,26.10
2017-08-12T12:07:16.459Z,26.10
2017-08-12T12:09:44.004Z,26.50
2017-08-12T12:12:11.530Z,27.50
2017-08-12T12:14:39.073Z,28.30
2017-08-12T12:17:06.614Z,27.30
2017-08-12T12:19:34.907Z,25.70
2017-08-12T12:22:02.480Z,25.70
2017-08-12T12:24:30.074Z,24.60
2017-08-12T12:26:57.593Z,24.20
2017-08-12T12:29:25.114Z,23.80
2017-08-12T12:31:52.658Z,23.30
2017-08-12T12:34:20.178Z,22.70
2017-08-12T12:36:47.701Z,22.40
2017-08-12T12:39:16.016Z,22.20
2017-08-12T12:41:43.534Z,22.10
2017-08-12T12:44:11.825Z,22.20
2017-08-12T12:46:39.370Z,22.10
2017-08-12T12:49:07.675Z,22.00
2017-08-12T12:51:35.197Z,22.00
2017-08-12T12:54:02.741Z,22.20
2017-08-12T12:56:30.266Z,22.20
2017-08-12T12:58:57.789Z,22.10
2017-08-12T13:01:26.103Z,21.40
2017-08-12T13:03:53.621Z,21.40
2017-08-12T13:06:21.909Z,20.90
2017-08-12T13:08:49.450Z,20.80
2017-08-12T13:11:17.759Z,20.30
2017-08-12T13:13:45.280Z,20.30
2017-08-12T13:16:12.815Z,20.10
2017-08-12T13:18:40.332Z,19.90
2017-08-12T13:21:07.852Z,19.50
2017-08-12T13:23:35.392Z,19.50
2017-08-12T13:26:02.908Z,19.30
2017-08-12T13:28:30.434Z,19.30
2017-08-12T13:30:59.109Z,18.90
2017-08-12T13:33:26.726Z,18.80
2017-08-12T13:35:54.254Z,18.70
2017-08-12T13:38:21.808Z,18.50
2017-08-12T13:40:49.365Z,18.30
2017-08-12T13:43:17.653Z,18.10
2017-08-12T13:45:45.240Z,18.00
2017-08-12T13:48:12.770Z,18.00
2017-08-12T13:50:40.291Z,17.90
2017-08-12T13:53:07.835Z,17.80
2017-08-12T13:55:35.358Z,17.70
2017-08-12T13:58:02.888Z,17.80
2017-08-12T14:00:31.213Z,18.60
2017-08-12T14:02:58.884Z,18.50
2017-08-12T14:05:26.399Z,19.50
2017-08-12T14:07:54.811Z,21.50
2017-08-12T14:10:22.330Z,21.50
2017-08-12T14:12:50.615Z,25.20
2017-08-12T14:15:18.164Z,25.20
2017-08-12T14:17:46.448Z,24.80
2017-08-12T14:20:14.738Z,24.00
2017-08-12T14:22:42.275Z,23.90
2017-08-12T14:25:10.562Z,25.90
2017-08-12T14:27:38.851Z,29.20
2017-08-12T14:30:06.386Z,29.10
2017-08-12T14:32:34.670Z,31.60
2017-08-12T14:35:02.982Z,29.60
2017-08-12T14:37:30.524Z,29.60
2017-08-12T14:39:58.056Z,27.60
2017-08-12T14:42:25.590Z,26.30
2017-08-12T14:44:53.170Z,25.70
2017-08-12T14:47:21.526Z,24.90
2017-08-12T14:49:49.045Z,24.80
2017-08-12T14:52:16.581Z,25.30
2017-08-12T14:54:44.106Z,25.40
2017-08-12T14:57:11.679Z,24.60
2017-08-12T14:59:39.245Z,24.20
2017-08-12T15:02:07.541Z,24.10
2017-08-12T15:04:35.852Z,23.50
2017-08-12T15:07:03.410Z,23.50
2017-08-12T15:09:30.923Z,22.50
2017-08-12T15:11:59.245Z,21.80
2017-08-12T15:14:26.796Z,21.80
2017-08-12T15:16:54.314Z,21.40
2017-08-12T15:19:22.604Z,20.70
2017-08-12T15:21:50.906Z,20.60
2017-08-12T15:24:18.423Z,20.60
2017-08-12T15:26:46.036Z,20.40
2017-08-12T15:29:13.574Z,20.30
2017-08-12T15:31:41.111Z,20.30
2017-08-12T15:34:08.940Z,20.40
2017-08-12T15:36:36.548Z,20.60
2017-08-12T15:39:04.834Z,21.30
2017-08-12T15:41:32.354Z,21.30
2017-08-12T15:44:00.010Z,21.30
2017-08-12T15:46:28.288Z,21.10
2017-08-12T15:48:55.918Z,21.10
2017-08-12T15:51:23.475Z,21.00
2017-08-12T15:53:50.994Z,20.90
2017-08-12T15:56:19.285Z,20.70
2017-08-12T15:58:46.830Z,20.70
2017-08-12T16:01:15.126Z,21.00
2017-08-12T16:03:42.668Z,20.90
2017-08-12T16:06:10.269Z,21.00
2017-08-12T16:08:37.777Z,21.10
2017-08-12T16:11:05.293Z,21.10
2017-08-12T16:13:32.845Z,21.20
2017-08-12T16:16:00.365Z,21.10
2017-08-12T16:18:28.653Z,20.70
2017-08-12T16:20:56.238Z,20.60
2017-08-12T16:23:23.749Z,20.50
2017-08-12T16:25:51.320Z,20.40
2017-08-12T16:28:19.625Z,20.20
2017-08-12T16:30:47.197Z,20.20
2017-08-12T16:33:14.710Z,20.20
2017-08-12T16:35:43.016Z,20.30
2017-08-12T16:38:10.537Z,20.20
2017-08-12T16:40:38.066Z,20.30
2017-08-12T16:43:07.716Z,20.30
2017-08-12T16:45:35.269Z,20.20
2017-08-12T16:48:03.562Z,20.20
2017-08-12T16:50:31.107Z,20.20
2017-08-12T16:52:59.398Z,20.20
2017-08-12T16:55:27.690Z,20.10
2017-08-12T16:57:55.232Z,20.10
2017-08-12T17:00:22.750Z,20.10
2017-08-12T17:02:50.273Z,20.10
2017-08-12T17:05:17.814Z,20.10
2017-08-12T17:07:45.344Z,20.00
2017-08-12T17:10:12.877Z,20.00
2017-08-12T17:12:40.417Z,19.90
2017-08-12T17:15:07.937Z,19.80
2017-08-12T17:17:36.221Z,19.70
2017-08-12T17:20:04.633Z,19.70
2017-08-12T17:22:32.148Z,19.70
2017-08-12T17:25:00.440Z,19.50
2017-08-12T17:27:28.793Z,19.40
2017-08-12T17:29:56.318Z,19.40
2017-08-12T17:32:23.848Z,19.30
2017-08-12T17:34:51.390Z,19.20
2017-08-12T17:37:19.679Z,19.00
2017-08-12T17:39:47.388Z,18.90
2017-08-12T17:42:14.930Z,18.90
2017-08-12T17:44:42.458Z,18.80
2017-08-12T17:47:09.974Z,18.80
2017-08-12T17:49:37.512Z,18.70
2017-08-12T17:52:05.030Z,18.70
2017-08-12T17:54:32.558Z,18.60
2017-08-12T17:57:00.096Z,18.60
2017-08-12T17:59:27.628Z,18.50
2017-08-12T18:01:55.158Z,18.40
2017-08-12T18:04:23.485Z,18.20
2017-08-12T18:06:51.061Z,18.10
2017-08-12T18:11:52.633Z,18.00
2017-08-12T18:14:20.152Z,17.80
2017-08-12T18:16:47.691Z,17.70
2017-08-12T18:19:15.228Z,17.60
2017-08-12T18:21:42.763Z,17.50
2017-08-12T18:24:10.281Z,17.40
2017-08-12T18:26:37.824Z,17.20
2017-08-12T18:29:06.145Z,17.00
2017-08-12T18:31:33.682Z,16.90
2017-08-12T18:34:01.224Z,16.90
2017-08-12T18:36:29.515Z,16.70
2017-08-12T18:38:57.038Z,16.70
2017-08-12T18:41:24.580Z,16.60
2017-08-12T18:43:52.111Z,16.50
2017-08-12T18:46:19.628Z,16.40
2017-08-12T18:48:47.178Z,16.30
2017-08-12T18:51:15.472Z,16.10
2017-08-12T18:53:43.763Z,16.10
2017-08-12T18:56:11.317Z,16.00
2017-08-12T18:58:38.842Z,15.90
2017-08-12T19:01:06.374Z,15.80
2017-08-12T19:03:33.922Z,15.70
2017-08-12T19:06:01.453Z,15.70
2017-08-12T19:08:28.985Z,15.70
2017-08-12T19:10:57.298Z,15.60
2017-08-12T19:13:24.821Z,15.50
2017-08-12T19:15:53.109Z,15.40
2017-08-12T19:18:20.650Z,15.40
2017-08-12T19:20:48.269Z,15.30
2017-08-12T19:23:15.793Z,15.20
2017-08-12T19:25:44.093Z,15.10
2017-08-12T19:28:11.617Z,15.10
2017-08-12T19:30:39.137Z,15.10
2017-08-12T19:33:06.668Z,15.10
2017-08-12T19:35:34.181Z,15.00
2017-08-12T19:38:01.699Z,14.90
2017-08-12T19:40:29.240Z,14.80
2017-08-12T19:42:56.756Z,14.80
2017-08-12T19:45:24.276Z,14.70
2017-08-12T19:47:51.808Z,14.70
2017-08-12T19:50:19.330Z,14.70
2017-08-12T19:52:46.851Z,14.60
2017-08-12T19:55:14.393Z,14.60
2017-08-12T19:57:41.978Z,14.50
2017-08-12T20:00:09.494Z,14.50
2017-08-12T20:02:37.799Z,14.40
2017-08-12T20:05:05.323Z,14.40
2017-08-12T20:07:33.645Z,14.30
2017-08-12T20:10:01.216Z,14.30
2017-08-12T20:12:28.742Z,14.20
2017-08-12T20:14:56.262Z,14.20
2017-08-12T20:17:23.802Z,14.20
2017-08-12T20:19:51.321Z,14.10
2017-08-12T20:22:18.846Z,14.10
2017-08-12T20:24:46.384Z,14.00
2017-08-12T20:27:13.904Z,14.00
2017-08-12T20:29:41.426Z,14.00
2017-08-12T20:32:09.726Z,14.00
2017-08-12T20:34:37.249Z,14.00
2017-08-12T20:37:04.777Z,14.00
2017-08-12T20:39:32.429Z,14.10
2017-08-12T20:41:59.948Z,14.20
2017-08-12T20:44:27.457Z,14.20
2017-08-12T20:46:54.995Z,14.30
2017-08-12T20:49:22.516Z,14.40
2017-08-12T20:51:50.815Z,14.60
2017-08-12T20:54:18.358Z,14.60
2017-08-12T20:56:45.880Z,14.60
2017-08-12T20:59:13.396Z,14.70
2017-08-12T21:01:40.935Z,14.80
2017-08-12T21:04:09.229Z,14.90
2017-08-12T21:06:36.752Z,14.90
2017-08-12T21:09:04.282Z,14.90
2017-08-12T21:11:31.802Z,15.00
2017-08-12T21:13:59.322Z,15.00
2017-08-12T21:16:26.861Z,15.00
2017-08-12T21:18:54.382Z,15.00
2017-08-12T21:21:21.902Z,15.10
2017-08-12T21:23:49.456Z,15.00
2017-08-12T21:26:16.966Z,15.10
2017-08-12T21:28:44.489Z,15.10
2017-08-12T21:31:12.031Z,15.10
2017-08-12T21:33:39.549Z,15.10
2017-08-12T21:36:07.072Z,15.20
2017-08-12T21:38:35.399Z,15.20
2017-08-12T21:41:02.934Z,15.20
2017-08-12T21:43:30.487Z,15.30
2017-08-12T21:45:58.805Z,15.30
2017-08-12T21:48:26.329Z,15.30
2017-08-12T21:50:53.850Z,15.30
2017-08-12T21:53:21.395Z,15.40
2017-08-12T21:55:48.927Z,15.40
2017-08-12T21:58:16.489Z,15.40
2017-08-12T22:00:44.024Z,15.40
2017-08-12T22:03:11.546Z,15.50
2017-08-12T22:05:39.070Z,15.50
2017-08-12T22:08:06.610Z,15.50
2017-08-12T22:10:34.164Z,15.50
2017-08-12T22:13:01.746Z,15.60
2017-08-12T22:15:29.282Z,15.60
2017-08-12T22:17:56.918Z,15.60
2017-08-12T22:20:24.437Z,15.60
2017-08-12T22:22:51.974Z,15.50
2017-08-12T22:25:19.500Z,15.50
2017-08-12T22:27:47.030Z,15.50
2017-08-12T22:30:14.577Z,15.50
2017-08-12T22:32:42.101Z,15.50
2017-08-12T22:35:09.621Z,15.50
2017-08-12T22:37:37.167Z,15.60
2017-08-12T22:40:04.681Z,15.60
2017-08-12T22:42:32.286Z,15.70
2017-08-12T22:44:59.827Z,15.70
2017-08-12T22:47:27.353Z,15.70
2017-08-12T22:49:54.873Z,15.70
2017-08-12T22:52:22.404Z,15.70
2017-08-12T22:54:49.952Z,15.60
2017-08-12T22:57:17.624Z,15.60
2017-08-12T22:59:45.226Z,15.60
2017-08-12T23:02:12.766Z,15.60
2017-08-12T23:04:40.296Z,15.60
2017-08-12T23:07:07.831Z,15.60
2017-08-12T23:09:35.358Z,15.50
2017-08-12T23:12:02.969Z,15.50
2017-08-12T23:14:30.500Z,15.50
2017-08-12T23:16:58.026Z,15.50
2017-08-12T23:19:25.582Z,15.50
2017-08-12T23:21:53.126Z,15.50
2017-08-12T23:24:20.650Z,15.40
2017-08-12T23:26:48.237Z,15.40
2017-08-12T23:29:15.785Z,15.40
2017-08-12T23:31:43.349Z,15.40
2017-08-12T23:34:10.901Z,15.40
2017-08-12T23:36:38.463Z,15.40
2017-08-12T23:39:05.977Z,15.50
2017-08-12T23:41:34.261Z,15.50
2017-08-12T23:44:01.861Z,15.50
2017-08-12T23:46:29.421Z,15.50
2017-08-12T23:48:56.945Z,15.40
2017-08-12T23:51:25.255Z,15.50
2017-08-12T23:53:52.777Z,15.50
2017-08-12T23:56:21.194Z,15.50
2017-08-12T23:58:48.762Z,15.50
